Time;durP1;ratioP1;P1;durP2;ratioP2;P2;SDS_P1;SDS_P2;PMS_P1;PMS_P2;Temp;Humidity;BMP_temperature;BMP_pressure;BME280_temperature;BME280_humidity;BME280_pressure;Samples;Min_cycle;Max_cycle;Signal;HPM_P1;HPM_P2
2022/05/25 00:02:01;;;;;;;18.93;18.03;;;;;;;;;;5093992;28;20416;-83
2022/05/25 00:04:28;;;;;;;19.63;18.53;;;;;;;;;;5093157;28;21011;-82
2022/05/25 00:06:56;;;;;;;19.00;17.87;;;;;;;;;;5093525;28;20417;-82
2022/05/25 00:09:23;;;;;;;19.63;18.50;;;;;;;;;;5093340;28;20441;-83
2022/05/25 00:11:51;;;;;;;19.67;18.67;;;;;;;;;;5093603;28;20409;-83
2022/05/25 00:14:20;;;;;;;19.07;18.13;;;;;;;;;;5093388;28;20416;-83
2022/05/25 00:16:48;;;;;;;19.60;18.67;;;;;;;;;;5093422;28;20465;-82
2022/05/25 00:21:59;;;;;;;19.27;18.27;;;;;;;;;;5093608;28;20404;-83
2022/05/25 00:24:27;;;;;;;19.87;18.87;;;;;;;;;;5093467;28;20442;-83
2022/05/25 00:26:54;;;;;;;20.03;19.03;;;;;;;;;;5093168;28;20412;-83
2022/05/25 00:29:23;;;;;;;19.20;18.30;;;;;;;;;;5093203;28;20453;-82
2022/05/25 00:31:50;;;;;;;19.57;18.57;;;;;;;;;;5093161;28;20448;-82
2022/05/25 00:34:18;;;;;;;19.83;18.70;;;;;;;;;;5093518;28;20444;-82
2022/05/25 00:36:45;;;;;;;19.97;18.87;;;;;;;;;;5093355;28;20438;-82
2022/05/25 00:39:12;;;;;;;19.70;18.57;;;;;;;;;;5093035;28;20439;-83
2022/05/25 00:41:40;;;;;;;19.23;18.23;;;;;;;;;;5093273;28;20416;-82
2022/05/25 00:44:08;;;;;;;20.63;19.53;;;;;;;;;;5092865;28;20942;-82
2022/05/25 00:46:39;;;;;;;20.63;19.60;;;;;;;;;;5092262;28;20453;-82
2022/05/25 00:49:07;;;;;;;20.10;19.00;;;;;;;;;;5097330;28;20433;-82
2022/05/25 00:51:38;;;;;;;19.30;18.30;;;;;;;;;;5097483;28;20480;-83
2022/05/25 00:54:07;;;;;;;19.80;18.37;;;;;;;;;;5097340;28;20806;-82
2022/05/25 00:56:35;;;;;;;19.20;18.20;;;;;;;;;;5097300;28;20948;-83
2022/05/25 00:59:04;;;;;;;20.60;19.50;;;;;;;;;;5097187;28;20416;-83
2022/05/25 01:01:31;;;;;;;19.73;18.67;;;;;;;;;;5096950;28;20464;-82
2022/05/25 01:04:00;;;;;;;20.07;19.07;;;;;;;;;;5096686;28;20438;-82
2022/05/25 01:06:36;;;;;;;20.00;19.00;;;;;;;;;;5097130;28;20427;-82
2022/05/25 01:09:09;;;;;;;19.60;18.60;;;;;;;;;;5096833;28;20411;-83
2022/05/25 01:11:45;;;;;;;19.63;18.63;;;;;;;;;;5096846;28;20484;-83
2022/05/25 01:14:27;;;;;;;19.73;18.73;;;;;;;;;;5096972;28;20452;-83
2022/05/25 01:17:00;;;;;;;19.87;18.87;;;;;;;;;;5094322;28;20496;-83
2022/05/25 01:19:46;;;;;;;20.17;19.17;;;;;;;;;;5096824;28;20445;-82
2022/05/25 01:22:21;;;;;;;20.10;19.00;;;;;;;;;;5096825;28;20419;-83
2022/05/25 01:24:54;;;;;;;20.67;19.37;;;;;;;;;;5096795;28;20444;-83
2022/05/25 01:27:36;;;;;;;19.97;18.97;;;;;;;;;;5095364;28;20458;-83
2022/05/25 01:30:18;;;;;;;19.77;18.67;;;;;;;;;;5096628;28;20452;-82
2022/05/25 01:32:54;;;;;;;19.67;18.67;;;;;;;;;;5096792;28;21079;-82
2022/05/25 01:35:34;;;;;;;20.13;19.13;;;;;;;;;;5096507;28;20511;-83
2022/05/25 01:38:08;;;;;;;20.13;18.93;;;;;;;;;;5096414;28;20437;-83
2022/05/25 01:40:37;;;;;;;19.07;18.07;;;;;;;;;;5096738;28;20857;-83
2022/05/25 01:43:08;;;;;;;20.17;19.07;;;;;;;;;;5096236;28;20420;-83
2022/05/25 01:45:41;;;;;;;19.33;18.40;;;;;;;;;;5096397;28;20515;-82
2022/05/25 01:48:10;;;;;;;19.77;18.70;;;;;;;;;;5096097;28;20477;-82
2022/05/25 01:50:40;;;;;;;19.80;18.80;;;;;;;;;;5096199;28;21205;-82
2022/05/25 01:53:09;;;;;;;18.80;17.90;;;;;;;;;;5096131;28;20438;-83
2022/05/25 01:55:38;;;;;;;20.13;19.03;;;;;;;;;;5096047;28;20441;-82
2022/05/25 01:58:09;;;;;;;19.60;18.47;;;;;;;;;;5095945;28;20439;-82
2022/05/25 02:00:39;;;;;;;20.50;19.30;;;;;;;;;;5095969;28;20404;-83
2022/05/25 02:05:58;;;;;;;20.70;19.70;;;;;;;;;;5095547;28;20476;-82
2022/05/25 02:08:31;;;;;;;20.50;19.30;;;;;;;;;;5095915;28;20408;-83
2022/05/25 02:11:05;;;;;;;20.80;19.80;;;;;;;;;;5095699;28;20562;-82
2022/05/25 02:13:40;;;;;;;20.50;19.30;;;;;;;;;;5095948;28;20413;-83
2022/05/25 02:16:17;;;;;;;20.57;19.47;;;;;;;;;;5095380;28;20448;-82
2022/05/25 02:18:46;;;;;;;20.40;19.10;;;;;;;;;;5095635;28;21014;-83
2022/05/25 02:21:16;;;;;;;20.10;19.10;;;;;;;;;;5095713;28;20429;-82
2022/05/25 02:23:47;;;;;;;19.27;18.27;;;;;;;;;;5095720;28;20412;-82
2022/05/25 02:26:18;;;;;;;20.27;19.17;;;;;;;;;;5095805;28;20488;-83
2022/05/25 02:28:47;;;;;;;22.40;20.93;;;;;;;;;;5095454;28;20429;-82
2022/05/25 02:31:18;;;;;;;19.87;18.87;;;;;;;;;;5095390;28;20448;-82
2022/05/25 02:33:46;;;;;;;20.20;19.20;;;;;;;;;;5095124;28;21025;-82
2022/05/25 02:36:14;;;;;;;20.07;19.07;;;;;;;;;;5095692;28;20408;-83
2022/05/25 02:38:42;;;;;;;19.40;18.50;;;;;;;;;;5095566;28;20452;-82
2022/05/25 02:41:10;;;;;;;20.50;19.40;;;;;;;;;;5095203;28;20898;-82
2022/05/25 02:43:38;;;;;;;19.70;18.70;;;;;;;;;;5095685;28;20412;-82
2022/05/25 02:46:06;;;;;;;20.00;18.90;;;;;;;;;;5095420;28;20415;-83
2022/05/25 02:48:35;;;;;;;19.87;18.77;;;;;;;;;;5095014;28;20440;-82
2022/05/25 02:51:02;;;;;;;19.60;18.60;;;;;;;;;;5095456;28;20467;-83
2022/05/25 02:53:30;;;;;;;21.57;20.27;;;;;;;;;;5094914;28;20415;-82
2022/05/25 02:55:57;;;;;;;20.60;19.40;;;;;;;;;;5095122;28;20479;-82
2022/05/25 02:58:25;;;;;;;20.43;19.33;;;;;;;;;;5094923;28;20419;-83
2022/05/25 03:00:52;;;;;;;20.40;19.30;;;;;;;;;;5094762;28;20408;-82
2022/05/25 03:03:19;;;;;;;20.43;19.23;;;;;;;;;;5094391;28;20437;-82
2022/05/25 03:05:48;;;;;;;20.90;19.70;;;;;;;;;;5094369;28;20455;-82
2022/05/25 03:08:16;;;;;;;19.97;18.90;;;;;;;;;;5094804;28;20554;-82
2022/05/25 03:10:43;;;;;;;20.90;19.17;;;;;;;;;;5094107;28;20448;-82
2022/05/25 03:13:12;;;;;;;20.20;19.10;;;;;;;;;;5094639;28;20421;-82
2022/05/25 03:15:40;;;;;;;20.87;19.67;;;;;;;;;;5094233;28;20408;-83
2022/05/25 03:18:08;;;;;;;20.20;19.10;;;;;;;;;;5093257;28;20851;-81
2022/05/25 03:20:35;;;;;;;20.23;19.17;;;;;;;;;;5094309;28;20478;-82
2022/05/25 03:23:04;;;;;;;20.93;19.70;;;;;;;;;;5094346;28;20413;-81
2022/05/25 03:25:31;;;;;;;20.30;19.20;;;;;;;;;;5094303;28;20442;-82
2022/05/25 03:28:02;;;;;;;20.80;19.70;;;;;;;;;;5093910;28;20864;-82
2022/05/25 03:30:30;;;;;;;20.60;19.50;;;;;;;;;;5093930;28;20456;-83
2022/05/25 03:32:57;;;;;;;20.70;19.57;;;;;;;;;;5093936;28;20479;-83
2022/05/25 03:35:25;;;;;;;20.60;19.50;;;;;;;;;;5094026;28;20417;-83
2022/05/25 03:37:52;;;;;;;22.17;20.90;;;;;;;;;;5094119;28;20448;-83
2022/05/25 03:40:21;;;;;;;20.80;19.70;;;;;;;;;;5094164;28;20416;-83
2022/05/25 03:42:49;;;;;;;20.33;19.23;;;;;;;;;;5094392;28;20437;-82
2022/05/25 03:45:17;;;;;;;21.70;20.40;;;;;;;;;;5094085;28;20766;-83
2022/05/25 03:47:44;;;;;;;21.37;20.10;;;;;;;;;;5093952;28;20412;-83
2022/05/25 03:50:11;;;;;;;20.47;19.37;;;;;;;;;;5093977;28;20420;-83
2022/05/25 03:52:39;;;;;;;20.80;19.50;;;;;;;;;;5093649;28;20492;-83
2022/05/25 03:55:07;;;;;;;21.87;20.47;;;;;;;;;;5093917;28;20868;-83
2022/05/25 03:57:36;;;;;;;21.50;20.20;;;;;;;;;;5093626;28;20413;-83
2022/05/25 04:00:03;;;;;;;21.93;20.63;;;;;;;;;;5093625;28;20441;-83
2022/05/25 04:02:30;;;;;;;20.50;19.40;;;;;;;;;;5093530;28;20981;-83
2022/05/25 04:05:08;;;;;;;20.57;19.37;;;;;;;;;;5093621;28;20519;-82
2022/05/25 04:07:36;;;;;;;21.50;20.17;;;;;;;;;;5093793;28;20441;-83
2022/05/25 04:10:05;;;;;;;20.73;19.53;;;;;;;;;;5093663;28;20461;-82
2022/05/25 04:12:32;;;;;;;21.67;20.37;;;;;;;;;;5093552;28;20483;-83
2022/05/25 04:15:01;;;;;;;21.07;19.80;;;;;;;;;;5093210;28;20433;-82
2022/05/25 04:17:28;;;;;;;21.00;19.90;;;;;;;;;;5093254;28;20420;-82
2022/05/25 04:19:56;;;;;;;20.53;19.40;;;;;;;;;;5093755;28;20404;-83
2022/05/25 04:22:24;;;;;;;21.70;20.20;;;;;;;;;;5092581;28;20438;-83
2022/05/25 04:24:51;;;;;;;21.30;20.10;;;;;;;;;;5093082;28;20408;-83
2022/05/25 04:27:19;;;;;;;20.63;19.50;;;;;;;;;;5093204;28;20595;-83
2022/05/25 04:29:46;;;;;;;21.67;20.40;;;;;;;;;;5093452;28;20450;-83
2022/05/25 04:32:15;;;;;;;20.77;19.57;;;;;;;;;;5093422;28;20476;-83
2022/05/25 04:34:42;;;;;;;21.07;19.87;;;;;;;;;;5093264;28;20447;-82
2022/05/25 04:39:54;;;;;;;21.13;19.93;;;;;;;;;;5093099;28;20910;-83
2022/05/25 04:42:22;;;;;;;21.07;19.73;;;;;;;;;;5093053;28;20432;-83
2022/05/25 04:44:49;;;;;;;21.03;19.50;;;;;;;;;;5093285;28;20444;-82
2022/05/25 04:47:18;;;;;;;22.23;20.93;;;;;;;;;;5093003;28;20429;-84
2022/05/25 04:49:45;;;;;;;20.77;19.67;;;;;;;;;;5093470;28;20772;-83
2022/05/25 04:52:13;;;;;;;21.00;19.60;;;;;;;;;;5092878;28;20460;-83
2022/05/25 04:54:40;;;;;;;21.40;20.20;;;;;;;;;;5093136;28;20751;-83
2022/05/25 04:57:23;;;;;;;21.53;20.33;;;;;;;;;;5093120;28;20792;-83
2022/05/25 04:59:50;;;;;;;21.40;20.27;;;;;;;;;;5092972;28;20416;-83
2022/05/25 05:02:19;;;;;;;22.30;21.00;;;;;;;;;;5093139;28;20437;-83
2022/05/25 05:04:46;;;;;;;22.87;21.47;;;;;;;;;;5092791;28;21025;-83
2022/05/25 05:07:14;;;;;;;22.37;21.07;;;;;;;;;;5093105;28;20412;-83
2022/05/25 05:09:43;;;;;;;23.17;21.70;;;;;;;;;;5093001;28;20420;-82
2022/05/25 05:12:10;;;;;;;21.77;20.53;;;;;;;;;;5092656;28;20484;-87
2022/05/25 05:14:38;;;;;;;22.00;20.83;;;;;;;;;;5092738;28;20444;-82
2022/05/25 05:17:07;;;;;;;22.60;20.90;;;;;;;;;;5092588;28;20440;-82
2022/05/25 05:19:35;;;;;;;22.40;21.03;;;;;;;;;;5092716;28;20438;-83
2022/05/25 05:22:03;;;;;;;22.90;21.60;;;;;;;;;;5092762;28;20434;-83
2022/05/25 05:24:32;;;;;;;21.80;20.60;;;;;;;;;;5092668;28;20408;-83
2022/05/25 05:27:00;;;;;;;21.73;20.30;;;;;;;;;;5092835;28;20445;-83
2022/05/25 05:29:30;;;;;;;22.60;21.30;;;;;;;;;;5093030;28;20489;-83
2022/05/25 05:31:57;;;;;;;21.80;20.50;;;;;;;;;;5092790;28;20831;-83
2022/05/25 05:34:27;;;;;;;23.53;21.97;;;;;;;;;;5096458;28;20548;-83
2022/05/25 05:36:58;;;;;;;22.80;21.33;;;;;;;;;;5096469;28;20446;-83
2022/05/25 05:39:27;;;;;;;23.00;21.60;;;;;;;;;;5096551;28;20419;-83
2022/05/25 05:41:56;;;;;;;22.60;21.20;;;;;;;;;;5096626;28;20441;-83
2022/05/25 05:44:26;;;;;;;22.50;21.20;;;;;;;;;;5096456;28;20420;-83
2022/05/25 05:46:55;;;;;;;22.37;21.07;;;;;;;;;;5096422;28;20413;-83
2022/05/25 05:49:23;;;;;;;22.47;21.07;;;;;;;;;;5094852;28;21015;-83
2022/05/25 05:51:50;;;;;;;22.90;21.40;;;;;;;;;;5096181;28;20874;-82
2022/05/25 05:54:20;;;;;;;22.10;20.80;;;;;;;;;;5096633;28;20754;-82
2022/05/25 05:56:47;;;;;;;23.20;21.83;;;;;;;;;;5095981;28;20433;-82
2022/05/25 05:59:15;;;;;;;22.17;20.77;;;;;;;;;;5095881;28;20404;-82
2022/05/25 06:01:45;;;;;;;22.30;20.90;;;;;;;;;;5096198;28;20411;-82
2022/05/25 06:04:12;;;;;;;22.10;20.80;;;;;;;;;;5096058;28;20442;-82
2022/05/25 06:06:39;;;;;;;22.40;20.90;;;;;;;;;;5096159;28;20441;-81
2022/05/25 06:09:07;;;;;;;22.30;20.80;;;;;;;;;;5096259;28;20420;-82
2022/05/25 06:11:40;;;;;;;22.53;21.10;;;;;;;;;;5096401;28;20493;-83
2022/05/25 06:14:07;;;;;;;21.53;20.33;;;;;;;;;;5096086;28;20914;-81
2022/05/25 06:19:29;;;;;;;22.23;20.60;;;;;;;;;;5095638;28;20420;-82
2022/05/25 06:21:58;;;;;;;21.80;20.50;;;;;;;;;;5096003;28;20411;-82
2022/05/25 06:24:26;;;;;;;22.07;20.57;;;;;;;;;;5095487;28;20473;-82
2022/05/25 06:26:54;;;;;;;21.40;20.13;;;;;;;;;;5095390;28;20412;-83
2022/05/25 06:29:22;;;;;;;21.10;19.80;;;;;;;;;;5095372;28;20413;-82
2022/05/25 06:31:49;;;;;;;21.77;20.17;;;;;;;;;;5095697;28;20469;-83
2022/05/25 06:34:17;;;;;;;22.00;20.47;;;;;;;;;;5095401;28;20477;-83
2022/05/25 06:36:45;;;;;;;21.50;20.27;;;;;;;;;;5095420;28;20437;-82
2022/05/25 06:39:12;;;;;;;22.37;20.87;;;;;;;;;;5095173;28;20877;-83
2022/05/25 06:41:40;;;;;;;24.30;22.60;;;;;;;;;;5095309;28;20435;-82
2022/05/25 06:44:08;;;;;;;23.03;21.50;;;;;;;;;;5094450;28;20515;-81
2022/05/25 06:46:36;;;;;;;22.57;21.17;;;;;;;;;;5095244;28;20761;-82
2022/05/25 06:49:03;;;;;;;22.33;21.00;;;;;;;;;;5093954;28;20929;-82
2022/05/25 06:51:32;;;;;;;23.30;21.53;;;;;;;;;;5095218;28;20761;-82
2022/05/25 06:53:59;;;;;;;23.00;21.07;;;;;;;;;;5095099;28;20420;-82
2022/05/25 06:56:27;;;;;;;23.37;21.87;;;;;;;;;;5094884;28;20430;-81
2022/05/25 06:58:55;;;;;;;23.70;21.87;;;;;;;;;;5095774;28;20451;-83
2022/05/25 07:01:25;;;;;;;23.23;21.70;;;;;;;;;;5095065;28;20483;-83
2022/05/25 07:03:53;;;;;;;23.07;21.50;;;;;;;;;;5094889;28;20874;-82
2022/05/25 07:06:21;;;;;;;24.37;22.50;;;;;;;;;;5094328;28;20479;-82
2022/05/25 07:08:48;;;;;;;24.27;22.10;;;;;;;;;;5095080;28;20404;-83
2022/05/25 07:11:16;;;;;;;23.23;21.73;;;;;;;;;;5094846;28;20537;-83
2022/05/25 07:13:43;;;;;;;25.00;22.93;;;;;;;;;;5094691;28;20806;-85
2022/05/25 07:16:13;;;;;;;25.03;23.23;;;;;;;;;;5085344;28;20439;-83
2022/05/25 07:18:41;;;;;;;25.73;23.83;;;;;;;;;;5074302;28;20425;-83
2022/05/25 07:21:10;;;;;;;26.47;24.67;;;;;;;;;;5074079;28;20413;-82
2022/05/25 07:23:37;;;;;;;24.73;22.83;;;;;;;;;;5074055;28;20421;-83
2022/05/25 07:26:06;;;;;;;26.53;24.70;;;;;;;;;;5074456;28;20450;-82
2022/05/25 07:28:34;;;;;;;24.70;22.90;;;;;;;;;;5074039;28;20413;-83
2022/05/25 07:31:03;;;;;;;25.40;23.70;;;;;;;;;;5074187;28;20413;-83
2022/05/25 07:33:31;;;;;;;25.73;24.13;;;;;;;;;;5074068;28;20843;-83
2022/05/25 07:36:00;;;;;;;25.43;23.77;;;;;;;;;;5073918;28;20912;-83
2022/05/25 07:38:28;;;;;;;24.60;23.00;;;;;;;;;;5074273;28;20409;-82
2022/05/25 07:40:55;;;;;;;24.10;22.50;;;;;;;;;;5073819;28;20443;-82
2022/05/25 07:43:25;;;;;;;23.47;21.93;;;;;;;;;;5073686;28;20423;-82
2022/05/25 07:45:53;;;;;;;24.23;22.63;;;;;;;;;;5078041;28;20436;-81
2022/05/25 07:48:20;;;;;;;24.33;22.67;;;;;;;;;;5095483;28;20416;-83
2022/05/25 07:50:48;;;;;;;25.03;23.40;;;;;;;;;;5095439;28;20735;-90
2022/05/25 07:56:03;;;;;;;25.70;24.00;;;;;;;;;;5095537;28;20392;-90
2022/05/25 07:58:31;;;;;;;24.17;22.70;;;;;;;;;;5095026;28;20774;-92
2022/05/25 08:01:00;;;;;;;25.40;23.70;;;;;;;;;;5096012;28;20438;-91
2022/05/25 08:06:12;;;;;;;24.30;22.77;;;;;;;;;;5098793;28;20465;-89
2022/05/25 08:08:42;;;;;;;24.00;22.40;;;;;;;;;;5096229;28;20428;-87
2022/05/25 08:11:11;;;;;;;26.20;24.50;;;;;;;;;;5095296;28;20420;-83
2022/05/25 08:13:40;;;;;;;23.80;22.30;;;;;;;;;;5094050;28;20456;-83
2022/05/25 08:16:08;;;;;;;25.00;23.50;;;;;;;;;;5095098;28;20462;-84
2022/05/25 08:18:36;;;;;;;23.90;22.50;;;;;;;;;;5095376;28;20420;-84
2022/05/25 08:21:03;;;;;;;23.87;22.37;;;;;;;;;;5093919;28;20457;-86
2022/05/25 08:23:31;;;;;;;24.87;23.27;;;;;;;;;;5093094;28;20445;-85
2022/05/25 08:26:00;;;;;;;24.00;22.53;;;;;;;;;;5094587;28;20471;-85
2022/05/25 08:28:27;;;;;;;25.87;24.17;;;;;;;;;;5095562;28;20420;-85
2022/05/25 08:30:54;;;;;;;25.20;23.60;;;;;;;;;;5094423;28;20440;-85
2022/05/25 08:33:22;;;;;;;25.17;23.57;;;;;;;;;;5094565;28;20799;-86
2022/05/25 08:35:50;;;;;;;24.53;23.13;;;;;;;;;;5093686;28;20452;-85
2022/05/25 08:38:21;;;;;;;24.83;23.23;;;;;;;;;;5094754;28;20437;-82
2022/05/25 08:40:49;;;;;;;25.93;24.23;;;;;;;;;;5094199;28;20529;-84
2022/05/25 08:43:19;;;;;;;24.07;22.57;;;;;;;;;;5093885;28;20435;-84
2022/05/25 08:45:48;;;;;;;23.80;22.40;;;;;;;;;;5093899;28;20433;-83
2022/05/25 08:48:17;;;;;;;24.47;23.07;;;;;;;;;;5093909;28;20891;-84
2022/05/25 08:50:45;;;;;;;23.57;22.07;;;;;;;;;;5092839;28;20416;-84
2022/05/25 08:53:14;;;;;;;22.50;21.13;;;;;;;;;;5093067;28;20459;-84
2022/05/25 08:55:56;;;;;;;23.70;22.40;;;;;;;;;;5093579;28;20427;-84
2022/05/25 08:58:27;;;;;;;22.93;21.37;;;;;;;;;;5093158;28;20415;-83
2022/05/25 09:00:55;;;;;;;23.67;22.27;;;;;;;;;;5093803;28;20441;-84
2022/05/25 09:03:26;;;;;;;24.30;22.60;;;;;;;;;;5091865;28;20437;-83
2022/05/25 09:05:55;;;;;;;23.90;22.40;;;;;;;;;;5081993;28;20468;-90
2022/05/25 09:08:28;;;;;;;25.27;23.50;;;;;;;;;;5075356;28;20906;-89
2022/05/25 09:10:58;;;;;;;21.80;20.60;;;;;;;;;;5078699;28;20454;-90
2022/05/25 09:13:29;;;;;;;24.57;23.10;;;;;;;;;;5078494;28;20485;-89
2022/05/25 09:18:45;;;;;;;24.03;22.63;;;;;;;;;;5076797;28;20427;-83
2022/05/25 09:21:14;;;;;;;24.33;22.93;;;;;;;;;;5077107;28;20438;-84
2022/05/25 09:23:42;;;;;;;24.20;22.90;;;;;;;;;;5076888;28;20462;-84
2022/05/25 09:26:09;;;;;;;23.67;22.27;;;;;;;;;;5076472;28;20409;-84
2022/05/25 09:28:42;;;;;;;23.30;21.90;;;;;;;;;;5076762;28;20752;-84
2022/05/25 09:31:10;;;;;;;23.60;22.10;;;;;;;;;;5076880;28;20504;-86
2022/05/25 09:33:41;;;;;;;22.87;21.57;;;;;;;;;;5076634;28;20476;-84
2022/05/25 09:36:10;;;;;;;22.23;20.90;;;;;;;;;;5076869;28;20428;-84
2022/05/25 09:38:43;;;;;;;22.20;21.00;;;;;;;;;;5076674;28;20432;-85
2022/05/25 09:41:11;;;;;;;23.63;22.13;;;;;;;;;;5076211;28;20424;-80
2022/05/25 09:43:41;;;;;;;22.90;21.50;;;;;;;;;;5077319;28;20790;-91
2022/05/25 09:46:10;;;;;;;22.33;20.83;;;;;;;;;;5077109;28;20511;-92
2022/05/25 09:48:41;;;;;;;22.33;20.50;;;;;;;;;;5076410;28;20469;-94
2022/05/25 09:51:19;;;;;;;21.93;20.63;;;;;;;;;;5089788;28;20433;-96
2022/05/25 09:53:50;;;;;;;22.63;21.33;;;;;;;;;;5077073;28;20510;-89
2022/05/25 09:56:21;;;;;;;22.00;20.70;;;;;;;;;;5080693;28;20426;-92
2022/05/25 09:58:51;;;;;;;21.83;20.63;;;;;;;;;;5080536;28;20425;-93
2022/05/25 10:03:55;;;;;;;22.43;21.13;;;;;;;;;;5056502;23;20497;-96
2022/05/25 10:08:51;;;;;;;22.40;21.00;;;;;;;;;;5154978;23;20998;-86
2022/05/25 10:14:19;;;;;;;21.93;20.53;;;;;;;;;;5055952;28;20505;-86
2022/05/25 10:16:47;;;;;;;21.80;20.40;;;;;;;;;;5039735;28;20463;-91
2022/05/25 10:19:17;;;;;;;21.27;20.07;;;;;;;;;;5055211;28;20445;-90
2022/05/25 10:21:49;;;;;;;21.87;20.67;;;;;;;;;;5056707;28;20431;-93
2022/05/25 10:24:22;;;;;;;22.33;21.03;;;;;;;;;;5038851;28;20488;-91
2022/05/25 10:26:51;;;;;;;23.27;22.07;;;;;;;;;;5056391;28;20414;-87
2022/05/25 10:37:52;;;;;;;21.43;20.33;;;;;;;;;;5057461;28;20547;-86
2022/05/25 10:40:22;;;;;;;22.80;21.60;;;;;;;;;;5055968;28;20417;-87
2022/05/25 10:42:51;;;;;;;22.33;21.13;;;;;;;;;;5055764;28;20422;-88
2022/05/25 10:45:21;;;;;;;21.33;20.13;;;;;;;;;;5056270;28;20544;-86
2022/05/25 10:47:55;;;;;;;21.87;20.57;;;;;;;;;;5055766;28;20809;-87
2022/05/25 10:50:24;;;;;;;22.03;20.63;;;;;;;;;;5055842;28;20435;-87
2022/05/25 10:52:53;;;;;;;22.67;21.37;;;;;;;;;;5056224;28;20475;-86
2022/05/25 10:55:21;;;;;;;21.90;20.60;;;;;;;;;;5055675;28;20815;-87
2022/05/25 10:57:56;;;;;;;21.93;20.63;;;;;;;;;;5037980;28;20451;-87
2022/05/25 11:00:31;;;;;;;23.00;21.70;;;;;;;;;;5055464;28;20414;-87
2022/05/25 11:03:17;;;;;;;22.30;21.10;;;;;;;;;;5055094;28;20401;-87
2022/05/25 11:05:48;;;;;;;21.90;20.60;;;;;;;;;;5056056;28;20522;-87
2022/05/25 11:08:22;;;;;;;22.13;20.93;;;;;;;;;;5055468;28;20479;-87
2022/05/25 11:10:52;;;;;;;22.60;21.40;;;;;;;;;;5055655;28;20422;-86
2022/05/25 11:13:38;;;;;;;22.20;20.90;;;;;;;;;;5056598;28;20874;-89
2022/05/25 11:16:17;;;;;;;21.60;20.40;;;;;;;;;;5057175;28;20451;-88
2022/05/25 11:18:54;;;;;;;21.77;20.47;;;;;;;;;;5057261;28;20425;-87
2022/05/25 11:21:25;;;;;;;22.87;21.57;;;;;;;;;;5056821;28;20528;-87
2022/05/25 11:24:09;;;;;;;21.90;20.70;;;;;;;;;;5057742;28;20431;-82
2022/05/25 11:26:47;;;;;;;23.00;21.57;;;;;;;;;;5055808;28;20414;-89
2022/05/25 11:29:25;;;;;;;21.83;20.53;;;;;;;;;;5055470;28;20438;-91
2022/05/25 11:32:00;;;;;;;22.80;21.50;;;;;;;;;;5055435;28;20449;-86
2022/05/25 11:34:36;;;;;;;22.77;21.47;;;;;;;;;;5055098;28;20483;-85
2022/05/25 11:37:18;;;;;;;23.30;21.80;;;;;;;;;;5056150;28;20605;-87
2022/05/25 11:39:49;;;;;;;22.93;21.63;;;;;;;;;;5055003;28;20410;-88
2022/05/25 11:42:24;;;;;;;23.13;21.67;;;;;;;;;;5055575;28;20493;-87
2022/05/25 11:44:58;;;;;;;22.77;21.37;;;;;;;;;;5054935;28;20441;-85
2022/05/25 11:47:39;;;;;;;22.07;20.77;;;;;;;;;;5054817;28;20775;-87
2022/05/25 11:50:24;;;;;;;22.43;21.23;;;;;;;;;;5054843;28;20446;-87
2022/05/25 11:52:59;;;;;;;22.73;21.07;;;;;;;;;;5057133;28;20458;-90
2022/05/25 11:55:29;;;;;;;23.33;22.03;;;;;;;;;;5072957;28;20397;-91
2022/05/25 11:58:09;;;;;;;22.30;21.00;;;;;;;;;;5063350;28;20868;-89
2022/05/25 12:00:46;;;;;;;22.27;20.97;;;;;;;;;;5040489;28;20421;-94
2022/05/25 12:03:22;;;;;;;22.43;21.13;;;;;;;;;;5056300;28;20414;-92
2022/05/25 12:05:58;;;;;;;22.60;21.27;;;;;;;;;;5056508;28;20409;-92
2022/05/25 12:08:35;;;;;;;22.10;20.80;;;;;;;;;;5055659;28;20561;-94
2022/05/25 12:11:07;;;;;;;22.47;21.07;;;;;;;;;;5057308;28;20918;-93
2022/05/25 12:13:40;;;;;;;22.33;21.03;;;;;;;;;;5057849;28;20497;-94
2022/05/25 12:16:11;;;;;;;22.20;20.90;;;;;;;;;;5058198;28;20411;-93
2022/05/25 12:18:42;;;;;;;22.90;21.60;;;;;;;;;;5060184;28;20432;-93
2022/05/25 12:21:13;;;;;;;22.50;21.20;;;;;;;;;;5060548;28;20435;-93
2022/05/25 12:23:42;;;;;;;22.50;21.20;;;;;;;;;;5061846;28;20410;-93
2022/05/25 12:26:14;;;;;;;22.60;21.20;;;;;;;;;;5062565;28;20930;-93
2022/05/25 12:28:42;;;;;;;21.73;20.43;;;;;;;;;;5064482;28;20418;-94
2022/05/25 12:31:12;;;;;;;23.07;21.50;;;;;;;;;;5061246;28;20414;-94
2022/05/25 12:33:42;;;;;;;22.17;20.87;;;;;;;;;;5055222;28;20494;-93
2022/05/25 12:36:10;;;;;;;22.03;20.63;;;;;;;;;;5055486;28;20421;-94
2022/05/25 12:38:38;;;;;;;21.63;20.43;;;;;;;;;;5054873;28;20410;-93
2022/05/25 12:41:27;;;;;;;21.20;20.00;;;;;;;;;;5057147;28;20444;-93
2022/05/25 12:43:55;;;;;;;22.07;20.77;;;;;;;;;;5049188;28;20445;-94
2022/05/25 12:49:35;;;;;;;23.17;21.83;;;;;;;;;;5056714;28;20493;-93
2022/05/25 12:52:03;;;;;;;21.93;20.73;;;;;;;;;;5055890;28;20442;-93
2022/05/25 12:54:32;;;;;;;22.13;20.73;;;;;;;;;;5056428;28;20950;-93
2022/05/25 12:57:00;;;;;;;23.03;21.63;;;;;;;;;;5055885;28;20410;-93
2022/05/25 12:59:32;;;;;;;21.93;20.73;;;;;;;;;;5056548;28;20790;-93
2022/05/25 13:02:22;;;;;;;22.60;21.30;;;;;;;;;;5059710;28;20410;-92
2022/05/25 13:04:52;;;;;;;22.93;21.50;;;;;;;;;;5062330;28;20909;-93
2022/05/25 13:07:37;;;;;;;22.80;21.40;;;;;;;;;;5059672;28;20481;-93
2022/05/25 13:10:08;;;;;;;21.87;20.67;;;;;;;;;;5056007;28;20405;-93
2022/05/25 13:12:45;;;;;;;22.07;20.70;;;;;;;;;;5056001;28;20887;-93
2022/05/25 13:15:27;;;;;;;22.13;20.73;;;;;;;;;;5057959;28;20464;-93
2022/05/25 13:17:55;;;;;;;21.40;20.10;;;;;;;;;;5054669;28;20402;-93
2022/05/25 13:20:50;;;;;;;23.57;21.87;;;;;;;;;;5057925;28;20409;-92
2022/05/25 13:23:36;;;;;;;22.00;20.70;;;;;;;;;;5059769;28;20465;-93
2022/05/25 13:26:08;;;;;;;22.50;21.17;;;;;;;;;;5060403;28;20435;-93
2022/05/25 13:28:43;;;;;;;21.70;20.50;;;;;;;;;;5061541;28;20415;-93
2022/05/25 13:31:19;;;;;;;21.77;20.57;;;;;;;;;;5059099;28;20449;-92
2022/05/25 13:33:48;;;;;;;22.30;21.00;;;;;;;;;;5058270;28;20494;-92
2022/05/25 13:36:19;;;;;;;22.03;20.73;;;;;;;;;;5059874;28;20431;-93
2022/05/25 13:38:48;;;;;;;23.00;21.60;;;;;;;;;;5055299;28;20779;-92
2022/05/25 13:41:18;;;;;;;23.37;22.00;;;;;;;;;;5054543;28;20440;-87
2022/05/25 13:43:55;;;;;;;22.13;20.83;;;;;;;;;;5054260;28;20435;-93
2022/05/25 13:46:32;;;;;;;22.27;20.87;;;;;;;;;;5053907;28;20920;-92
2022/05/25 13:49:00;;;;;;;22.80;21.50;;;;;;;;;;5053895;28;20417;-93
2022/05/25 13:51:28;;;;;;;23.00;21.60;;;;;;;;;;5056336;28;20418;-93
2022/05/25 13:53:56;;;;;;;23.10;21.80;;;;;;;;;;5067447;28;20483;-92
2022/05/25 13:56:26;;;;;;;22.17;20.87;;;;;;;;;;5066459;28;20422;-92
2022/05/25 13:58:57;;;;;;;23.07;21.77;;;;;;;;;;5066073;28;20436;-92
2022/05/25 14:01:25;;;;;;;22.33;21.03;;;;;;;;;;5065184;28;20459;-92
2022/05/25 14:03:53;;;;;;;22.60;21.20;;;;;;;;;;5067221;28;20827;-93
2022/05/25 14:06:21;;;;;;;22.47;21.17;;;;;;;;;;5068839;28;20431;-92
2022/05/25 14:11:38;;;;;;;22.53;21.23;;;;;;;;;;5057022;28;20430;-93
2022/05/25 14:14:17;;;;;;;23.70;22.00;;;;;;;;;;5056915;28;20487;-94
2022/05/25 14:16:49;;;;;;;22.27;20.97;;;;;;;;;;5056694;28;20915;-93
2022/05/25 14:19:21;;;;;;;21.10;19.80;;;;;;;;;;5057201;28;20410;-93
2022/05/25 14:21:50;;;;;;;22.20;20.90;;;;;;;;;;5056729;28;20518;-93
2022/05/25 14:24:19;;;;;;;20.90;19.70;;;;;;;;;;5056615;28;20462;-93
2022/05/25 14:26:49;;;;;;;22.67;21.17;;;;;;;;;;5056867;28;20443;-94
2022/05/25 14:29:18;;;;;;;22.13;20.83;;;;;;;;;;5050467;28;20460;-89
2022/05/25 14:31:47;;;;;;;22.13;20.83;;;;;;;;;;5030103;28;20460;-96
2022/05/25 14:34:18;;;;;;;21.00;19.70;;;;;;;;;;5022244;28;20957;-88
2022/05/25 14:36:46;;;;;;;21.33;20.13;;;;;;;;;;5000563;28;20449;-87
2022/05/25 14:39:15;;;;;;;21.93;20.50;;;;;;;;;;5017074;28;20441;-87
2022/05/25 14:41:48;;;;;;;22.20;21.00;;;;;;;;;;5016657;28;20453;-88
2022/05/25 14:44:42;;;;;;;22.57;21.37;;;;;;;;;;5016515;28;20449;-88
2022/05/25 14:47:28;;;;;;;21.23;20.03;;;;;;;;;;5016670;28;20437;-88
2022/05/25 14:49:57;;;;;;;22.50;21.30;;;;;;;;;;5016438;28;20445;-88
2022/05/25 14:52:27;;;;;;;21.87;20.67;;;;;;;;;;5016766;28;20442;-88
2022/05/25 14:55:01;;;;;;;22.30;21.10;;;;;;;;;;5016458;28;20801;-88
2022/05/25 14:57:29;;;;;;;23.13;21.93;;;;;;;;;;5016495;28;20423;-87
2022/05/25 14:59:59;;;;;;;23.17;21.97;;;;;;;;;;5016379;28;20804;-85
2022/05/25 15:02:28;;;;;;;23.30;22.10;;;;;;;;;;5016566;28;20483;-87
2022/05/25 15:04:56;;;;;;;23.07;21.87;;;;;;;;;;5015977;28;20420;-88
2022/05/25 15:07:24;;;;;;;22.23;21.03;;;;;;;;;;5021170;28;20489;-87
2022/05/25 15:09:51;;;;;;;23.73;22.23;;;;;;;;;;5035864;28;20428;-87
2022/05/25 15:12:21;;;;;;;22.50;21.30;;;;;;;;;;5035463;28;20407;-87
2022/05/25 15:20:51;;;;;;;23.70;22.30;;;;;;;;;;5035329;28;20428;-89
2022/05/25 15:23:25;;;;;;;24.17;22.83;;;;;;;;;;5035605;28;20437;-89